Time;durP1;ratioP1;P1;durP2;ratioP2;P2;SDS_P1;SDS_P2;PMS_P1;PMS_P2;Temp;Humidity;BMP_temperature;BMP_pressure;BME280_temperature;BME280_humidity;BME280_pressure;Samples;Min_cycle;Max_cycle;Signal;HPM_P1;HPM_P2
2022/11/29 00:00:33;;;;;;;7.13;3.73;;;9.50;99.90;;;;;;5005773;28;20575;-84
2022/11/29 00:02:58;;;;;;;6.47;4.20;;;9.50;99.90;;;;;;5002169;28;20474;-84
2022/11/29 00:05:24;;;;;;;6.10;4.03;;;9.50;99.90;;;;;;5038078;28;20022;-84
2022/11/29 00:07:50;;;;;;;5.40;3.63;;;9.40;99.90;;;;;;5025230;28;20025;-84
2022/11/29 00:10:15;;;;;;;7.78;3.90;;;9.40;99.90;;;;;;5015576;28;20109;-84
2022/11/29 00:12:41;;;;;;;5.87;3.70;;;9.30;99.90;;;;;;5027539;28;20108;-84
2022/11/29 00:15:07;;;;;;;5.05;3.63;;;9.30;99.90;;;;;;5025693;28;20080;-84
2022/11/29 00:17:33;;;;;;;5.60;3.47;;;9.30;99.90;;;;;;5029470;28;20080;-84
2022/11/29 00:19:58;;;;;;;5.70;3.30;;;9.20;99.90;;;;;;5026771;28;20485;-84
2022/11/29 00:22:24;;;;;;;5.70;3.50;;;9.20;99.90;;;;;;5022703;28;20452;-84
2022/11/29 00:24:50;;;;;;;6.03;3.35;;;9.20;99.90;;;;;;5019207;28;20021;-84
2022/11/29 00:27:17;;;;;;;5.45;3.60;;;9.10;99.90;;;;;;5039482;28;20388;-84
2022/11/29 00:29:42;;;;;;;6.10;4.00;;;9.10;99.90;;;;;;5025810;28;20095;-84
2022/11/29 00:32:09;;;;;;;5.65;3.50;;;9.10;99.90;;;;;;5016530;28;20221;-84
2022/11/29 00:34:35;;;;;;;6.72;3.78;;;9.00;99.90;;;;;;4978236;28;20022;-84
2022/11/29 00:37:00;;;;;;;5.82;3.55;;;9.00;99.90;;;;;;5026656;28;20237;-84
2022/11/29 00:39:26;;;;;;;5.40;3.50;;;9.00;99.90;;;;;;5006075;28;20489;-84
2022/11/29 00:41:52;;;;;;;6.33;3.63;;;8.90;99.90;;;;;;5050492;28;20025;-84
2022/11/29 00:44:17;;;;;;;7.28;4.38;;;8.90;99.90;;;;;;5023159;28;20235;-84
2022/11/29 00:46:43;;;;;;;5.77;3.90;;;8.90;99.90;;;;;;4994699;28;20068;-84
2022/11/29 00:49:09;;;;;;;4.68;3.25;;;8.80;99.90;;;;;;5021012;28;20453;-84
2022/11/29 00:51:34;;;;;;;5.20;3.43;;;8.70;99.90;;;;;;5008499;28;20079;-84
2022/11/29 00:54:00;;;;;;;6.38;3.95;;;8.80;99.90;;;;;;5011973;28;20029;-84
2022/11/29 00:56:26;;;;;;;5.43;3.50;;;8.70;99.90;;;;;;5030025;28;20262;-84
2022/11/29 00:58:52;;;;;;;6.93;4.20;;;8.70;99.90;;;;;;5034752;28;20017;-84
2022/11/29 01:01:18;;;;;;;6.83;3.93;;;8.60;99.90;;;;;;5023376;28;20029;-84
2022/11/29 01:03:43;;;;;;;5.40;3.33;;;8.60;99.90;;;;;;5000364;28;20093;-84
2022/11/29 01:06:12;;;;;;;5.88;3.72;;;8.60;99.90;;;;;;5031173;28;20033;-84
2022/11/29 01:08:38;;;;;;;5.95;3.65;;;8.50;99.90;;;;;;5029861;28;20503;-84
2022/11/29 01:11:14;;;;;;;8.33;3.77;;;8.50;99.90;;;;;;5017632;28;20044;-84
2022/11/29 01:13:41;;;;;;;6.22;4.10;;;8.40;99.90;;;;;;5022459;28;20076;-84
2022/11/29 01:16:07;;;;;;;5.05;3.38;;;8.40;99.90;;;;;;5010136;28;20456;-84
2022/11/29 01:18:33;;;;;;;6.43;3.80;;;8.40;99.90;;;;;;5008871;28;20092;-84
2022/11/29 01:21:03;;;;;;;6.93;3.50;;;8.30;99.90;;;;;;5008123;28;20112;-84
2022/11/29 01:23:28;;;;;;;5.63;3.60;;;8.30;99.90;;;;;;5016000;28;20536;-84
2022/11/29 01:26:00;;;;;;;6.25;3.50;;;8.30;99.90;;;;;;5007571;28;20456;-84
2022/11/29 01:28:26;;;;;;;5.95;3.60;;;8.20;99.90;;;;;;5025527;28;20624;-84
2022/11/29 01:30:52;;;;;;;6.53;3.80;;;8.20;99.90;;;;;;5026282;28;20022;-84
2022/11/29 01:33:18;;;;;;;6.20;3.22;;;8.20;99.90;;;;;;5010858;28;21091;-84
2022/11/29 01:35:52;;;;;;;7.50;4.00;;;8.20;99.90;;;;;;5031708;28;20718;-84
2022/11/29 01:38:18;;;;;;;7.03;3.70;;;8.10;99.90;;;;;;5022475;28;20517;-84
2022/11/29 01:40:44;;;;;;;5.55;3.55;;;8.10;99.90;;;;;;5021182;28;20057;-84
2022/11/29 01:43:17;;;;;;;6.13;3.60;;;8.10;99.90;;;;;;5020380;28;20044;-84
2022/11/29 01:45:43;;;;;;;6.13;3.65;;;8.00;99.90;;;;;;5052554;28;20063;-84
2022/11/29 01:48:13;;;;;;;6.50;3.70;;;8.00;99.90;;;;;;5020529;28;20074;-84
2022/11/29 01:50:41;;;;;;;9.15;3.95;;;8.00;99.90;;;;;;5038559;28;20517;-83
2022/11/29 01:53:07;;;;;;;7.70;3.95;;;8.00;99.90;;;;;;5004747;28;20091;-84
2022/11/29 01:55:37;;;;;;;6.80;3.47;;;7.90;99.90;;;;;;5027319;28;20363;-84
2022/11/29 01:58:05;;;;;;;6.85;3.58;;;7.90;99.90;;;;;;5004430;28;20091;-84
2022/11/29 02:00:31;;;;;;;6.38;3.65;;;7.90;99.90;;;;;;5022856;28;20032;-84
2022/11/29 02:03:04;;;;;;;5.18;3.00;;;7.80;99.90;;;;;;5027308;28;20441;-84
2022/11/29 02:05:31;;;;;;;5.63;3.35;;;7.80;99.90;;;;;;5042173;28;20029;-84
2022/11/29 02:07:58;;;;;;;7.10;3.30;;;7.80;99.90;;;;;;4991997;28;20552;-84
2022/11/29 02:10:54;;;;;;;6.05;3.50;;;7.80;99.90;;;;;;5037253;28;20099;-84
2022/11/29 02:13:40;;;;;;;5.43;3.22;;;7.80;99.90;;;;;;4985695;28;20339;-84
2022/11/29 02:16:30;;;;;;;4.55;2.85;;;7.80;99.90;;;;;;5021709;28;20111;-84
2022/11/29 02:19:08;;;;;;;6.47;3.20;;;7.80;99.90;;;;;;5039585;28;20048;-84
2022/11/29 02:21:56;;;;;;;5.17;3.23;;;7.80;99.90;;;;;;5009368;28;21119;-84
2022/11/29 02:24:27;;;;;;;6.05;3.80;;;7.80;99.90;;;;;;5008978;28;20029;-84
2022/11/29 02:27:11;;;;;;;5.35;3.22;;;7.80;99.90;;;;;;5038903;28;20057;-84
2022/11/29 02:29:47;;;;;;;6.57;3.85;;;7.80;99.90;;;;;;5038244;28;20025;-84
2022/11/29 02:32:50;;;;;;;5.80;3.28;;;7.80;99.90;;;;;;5038743;28;20615;-84
2022/11/29 02:35:37;;;;;;;6.00;3.70;;;7.80;99.90;;;;;;5017466;28;20198;-84
2022/11/29 02:38:08;;;;;;;6.57;3.53;;;7.80;99.90;;;;;;5001416;28;20288;-84
2022/11/29 02:40:48;;;;;;;6.22;3.78;;;7.80;99.90;;;;;;5028185;28;20029;-84
2022/11/29 02:43:36;;;;;;;7.85;4.07;;;7.80;99.90;;;;;;5004263;28;20526;-84
2022/11/29 02:46:12;;;;;;;6.38;3.60;;;7.90;99.90;;;;;;5010229;28;20708;-84
2022/11/29 02:48:56;;;;;;;6.23;3.70;;;7.90;99.90;;;;;;5024362;28;20525;-84
2022/11/29 02:51:42;;;;;;;4.93;3.22;;;7.90;99.90;;;;;;4995382;28;20641;-84
2022/11/29 02:54:27;;;;;;;4.97;3.22;;;8.00;99.90;;;;;;5036148;28;20025;-84
2022/11/29 02:57:35;;;;;;;5.72;3.60;;;8.00;99.90;;;;;;5029035;28;20024;-84
2022/11/29 03:00:03;;;;;;;7.25;3.85;;;8.10;99.90;;;;;;5029347;28;20031;-84
2022/11/29 03:02:47;;;;;;;5.87;3.43;;;8.10;99.90;;;;;;5052242;28;20036;-84
2022/11/29 03:05:31;;;;;;;6.40;3.80;;;8.20;99.90;;;;;;5022629;28;20585;-84
2022/11/29 03:08:09;;;;;;;6.30;3.58;;;8.20;99.90;;;;;;4988097;28;20421;-84
2022/11/29 03:10:59;;;;;;;7.05;3.53;;;8.20;99.90;;;;;;5058154;28;20045;-84
2022/11/29 03:13:46;;;;;;;6.30;3.83;;;8.30;99.90;;;;;;5019519;28;20128;-84
2022/11/29 03:16:22;;;;;;;7.07;3.83;;;8.40;99.90;;;;;;5015917;28;20384;-84
2022/11/29 03:19:11;;;;;;;5.88;3.40;;;8.40;99.90;;;;;;5017765;28;20029;-84
2022/11/29 03:22:09;;;;;;;6.35;3.78;;;8.40;99.90;;;;;;5045880;28;20025;-84
2022/11/29 03:24:54;;;;;;;6.30;3.80;;;8.50;99.90;;;;;;5024429;28;20379;-83
2022/11/29 03:27:42;;;;;;;6.40;3.55;;;8.40;99.90;;;;;;5029715;28;20234;-84
2022/11/29 03:30:11;;;;;;;6.67;3.83;;;8.50;99.90;;;;;;5033097;28;20029;-85
2022/11/29 03:33:05;;;;;;;6.40;3.53;;;8.50;99.90;;;;;;5043837;28;20029;-85
2022/11/29 03:35:55;;;;;;;7.50;3.78;;;8.50;99.90;;;;;;5031477;28;20214;-84
2022/11/29 03:38:31;;;;;;;6.65;3.90;;;8.50;99.90;;;;;;5003173;28;20041;-84
2022/11/29 03:41:06;;;;;;;5.70;3.65;;;8.50;99.90;;;;;;5031356;28;20051;-84
2022/11/29 03:43:55;;;;;;;6.90;3.67;;;8.50;99.90;;;;;;5022585;28;20029;-84
2022/11/29 03:46:55;;;;;;;7.50;4.03;;;8.50;99.90;;;;;;5017530;28;20552;-84
2022/11/29 03:49:27;;;;;;;6.60;3.45;;;8.50;99.90;;;;;;5008425;28;20060;-84
2022/11/29 03:52:08;;;;;;;6.28;3.53;;;8.50;99.90;;;;;;5049222;28;20094;-84
2022/11/29 03:54:41;;;;;;;5.93;3.47;;;8.50;99.90;;;;;;4982098;28;20600;-84
2022/11/29 03:57:07;;;;;;;6.93;3.80;;;8.50;99.90;;;;;;5015066;28;20028;-84
2022/11/29 03:59:33;;;;;;;7.40;3.80;;;8.50;99.90;;;;;;5032761;28;20417;-84
2022/11/29 04:02:09;;;;;;;7.30;3.87;;;8.40;99.90;;;;;;5019343;28;20025;-84
2022/11/29 04:05:02;;;;;;;6.47;3.60;;;8.40;99.90;;;;;;5030298;28;21464;-84
2022/11/29 04:07:46;;;;;;;6.82;3.45;;;8.30;99.90;;;;;;5029358;28;20040;-84
2022/11/29 04:10:47;;;;;;;7.30;3.65;;;8.30;99.90;;;;;;5016119;28;20053;-84
2022/11/29 04:13:44;;;;;;;6.15;4.13;;;8.20;99.90;;;;;;5038704;28;20223;-84
2022/11/29 04:16:39;;;;;;;5.63;3.27;;;8.10;99.90;;;;;;5002423;28;20509;-84
2022/11/29 04:19:05;;;;;;;5.75;3.35;;;8.10;99.90;;;;;;5009883;28;20556;-84
2022/11/29 04:22:03;;;;;;;5.18;3.13;;;8.00;99.90;;;;;;5034218;28;20429;-84
2022/11/29 04:24:54;;;;;;;7.73;3.70;;;8.00;99.90;;;;;;4979192;28;20087;-85
2022/11/29 04:27:36;;;;;;;6.00;3.50;;;7.90;99.90;;;;;;5010237;28;20259;-84
2022/11/29 04:30:11;;;;;;;6.03;3.30;;;7.90;99.90;;;;;;5025478;28;20606;-84
2022/11/29 04:32:56;;;;;;;6.68;3.40;;;7.80;99.90;;;;;;5024027;28;20386;-84
2022/11/29 04:35:47;;;;;;;6.47;3.63;;;7.80;99.90;;;;;;5010787;28;20128;-84
2022/11/29 04:38:19;;;;;;;5.77;3.30;;;7.70;99.90;;;;;;5013556;28;20048;-84
2022/11/29 04:41:01;;;;;;;6.13;3.45;;;7.70;99.90;;;;;;4978601;28;20839;-84
2022/11/29 04:44:04;;;;;;;7.18;3.90;;;7.70;99.90;;;;;;5018262;28;20021;-84
2022/11/29 04:46:58;;;;;;;6.88;3.40;;;7.70;99.90;;;;;;5057780;28;20377;-84
2022/11/29 04:50:03;;;;;;;5.82;3.20;;;7.70;99.90;;;;;;5036461;28;20124;-84
2022/11/29 04:52:54;;;;;;;6.83;3.47;;;7.70;99.90;;;;;;5026077;28;20036;-84
2022/11/29 04:55:48;;;;;;;5.75;3.42;;;7.70;99.90;;;;;;5001094;28;20040;-84
2022/11/29 04:58:22;;;;;;;4.70;3.03;;;7.70;99.90;;;;;;5008583;28;20390;-84
2022/11/29 05:00:57;;;;;;;4.30;2.90;;;7.70;99.90;;;;;;5024241;28;20498;-84
2022/11/29 05:03:36;;;;;;;5.35;3.30;;;7.70;99.90;;;;;;5019319;28;22045;-84
2022/11/29 05:06:04;;;;;;;5.30;3.00;;;7.70;99.90;;;;;;5028867;28;20114;-84
2022/11/29 05:08:45;;;;;;;5.35;2.97;;;7.70;99.90;;;;;;5026694;28;20082;-84
2022/11/29 05:11:18;;;;;;;8.27;3.60;;;7.60;99.90;;;;;;4999455;28;20053;-84
2022/11/29 05:14:00;;;;;;;5.93;3.60;;;7.70;99.90;;;;;;5006028;28;20029;-84
2022/11/29 05:16:53;;;;;;;5.38;3.25;;;7.70;99.90;;;;;;5028878;28;20028;-84
2022/11/29 05:19:40;;;;;;;6.43;3.33;;;7.70;99.90;;;;;;5006799;28;20033;-84
2022/11/29 05:22:19;;;;;;;5.35;3.20;;;7.80;99.90;;;;;;5025836;28;20021;-84
2022/11/29 05:25:07;;;;;;;5.45;3.30;;;7.70;99.90;;;;;;5035579;28;20055;-85
2022/11/29 05:27:35;;;;;;;4.55;2.88;;;7.80;99.90;;;;;;4991871;28;20144;-84
2022/11/29 05:30:16;;;;;;;5.57;3.15;;;7.80;99.90;;;;;;5012997;28;20222;-84
2022/11/29 05:32:48;;;;;;;4.47;2.93;;;7.80;99.90;;;;;;5028799;28;20029;-84
2022/11/29 05:35:22;;;;;;;5.22;3.17;;;7.80;99.90;;;;;;5011600;28;20033;-84
2022/11/29 05:37:53;;;;;;;5.43;3.28;;;7.80;99.90;;;;;;5040834;28;20032;-84
2022/11/29 05:40:37;;;;;;;5.65;3.28;;;7.90;99.90;;;;;;5027571;28;20485;-87
2022/11/29 05:43:13;;;;;;;5.80;3.55;;;7.90;99.90;;;;;;4991641;28;20067;-84
2022/11/29 05:45:56;;;;;;;5.90;3.37;;;7.90;99.90;;;;;;5010215;28;20041;-84
2022/11/29 05:48:44;;;;;;;5.35;3.42;;;8.00;99.90;;;;;;5040446;28;20710;-84
2022/11/29 05:51:26;;;;;;;5.78;3.10;;;8.00;99.90;;;;;;4998749;28;20559;-85
2022/11/29 05:54:23;;;;;;;4.78;3.00;;;8.00;99.90;;;;;;5021401;28;20325;-85
2022/11/29 05:57:20;;;;;;;6.88;3.20;;;8.00;99.90;;;;;;5007851;28;20631;-85
2022/11/29 05:59:48;;;;;;;5.03;3.47;;;8.10;99.90;;;;;;5005859;28;20300;-84
2022/11/29 06:02:45;;;;;;;6.10;3.47;;;8.10;99.90;;;;;;5022961;28;20315;-85
2022/11/29 06:05:29;;;;;;;4.78;2.97;;;8.10;99.90;;;;;;5017213;28;20489;-85
2022/11/29 06:08:07;;;;;;;4.30;2.90;;;8.10;99.90;;;;;;5014285;28;20033;-85
2022/11/29 06:10:38;;;;;;;4.97;3.22;;;8.20;99.90;;;;;;5022010;28;20151;-84
2022/11/29 06:13:29;;;;;;;5.43;2.93;;;8.20;99.90;;;;;;5015253;28;20365;-85
2022/11/29 06:16:27;;;;;;;5.07;2.80;;;8.20;99.90;;;;;;5012125;28;20048;-85
2022/11/29 06:19:15;;;;;;;5.45;3.35;;;8.20;99.90;;;;;;5027162;28;20128;-84
2022/11/29 06:22:20;;;;;;;5.75;2.85;;;8.20;99.90;;;;;;5021460;28;20041;-85
2022/11/29 06:25:05;;;;;;;5.82;3.47;;;8.30;99.90;;;;;;5022332;28;20096;-85
2022/11/29 06:27:39;;;;;;;5.40;3.40;;;8.20;99.90;;;;;;5020308;28;20319;-85
2022/11/29 06:30:13;;;;;;;5.10;3.45;;;8.30;99.90;;;;;;5001903;28;20018;-85
2022/11/29 06:32:51;;;;;;;6.55;3.60;;;8.30;99.90;;;;;;5027743;28;20084;-84
2022/11/29 06:35:20;;;;;;;4.40;2.60;;;8.30;99.90;;;;;;5034359;28;20381;-84
2022/11/29 06:37:52;;;;;;;6.25;3.55;;;8.30;99.90;;;;;;5009344;28;20114;-85
2022/11/29 06:40:18;;;;;;;6.40;4.00;;;8.30;99.90;;;;;;5028729;28;20032;-85
2022/11/29 06:42:43;;;;;;;7.25;4.13;;;8.30;99.90;;;;;;5011134;28;20025;-85
2022/11/29 06:45:12;;;;;;;8.57;5.47;;;8.30;99.90;;;;;;5002793;28;20134;-85
2022/11/29 06:47:47;;;;;;;7.05;4.50;;;8.30;99.90;;;;;;5024774;28;20029;-87
2022/11/29 06:50:31;;;;;;;6.15;3.85;;;8.30;99.90;;;;;;5001003;28;20061;-85
2022/11/29 06:53:19;;;;;;;5.68;3.28;;;8.30;99.90;;;;;;4991213;28;20869;-85
2022/11/29 06:56:05;;;;;;;4.90;2.87;;;8.30;99.90;;;;;;5020141;28;20391;-85
2022/11/29 06:59:06;;;;;;;5.43;2.97;;;8.30;99.90;;;;;;5048902;28;20108;-85
2022/11/29 07:01:40;;;;;;;4.95;3.08;;;8.20;99.90;;;;;;5001365;28;20104;-85
2022/11/29 07:04:44;;;;;;;6.53;3.38;;;8.20;99.90;;;;;;5027054;28;21509;-84
2022/11/29 07:07:28;;;;;;;5.85;3.50;;;8.10;99.90;;;;;;5035053;28;20249;-84
2022/11/29 07:09:59;;;;;;;5.77;3.33;;;8.10;99.90;;;;;;5008506;28;20127;-85
2022/11/29 07:12:25;;;;;;;5.82;3.70;;;8.00;99.90;;;;;;5014120;28;20044;-85
2022/11/29 07:14:51;;;;;;;6.28;3.60;;;7.90;99.90;;;;;;5027448;28;20480;-85
2022/11/29 07:17:31;;;;;;;6.18;3.47;;;7.80;99.90;;;;;;5000881;28;20147;-84
2022/11/29 07:20:20;;;;;;;7.05;3.30;;;7.80;99.90;;;;;;5021769;28;20191;-84
2022/11/29 07:22:48;;;;;;;5.03;3.20;;;7.70;99.90;;;;;;5009780;28;20514;-85
2022/11/29 07:25:35;;;;;;;5.82;3.40;;;7.60;99.90;;;;;;4998761;28;20113;-85
2022/11/29 07:28:03;;;;;;;6.95;3.63;;;7.60;99.90;;;;;;5018225;28;20134;-84
2022/11/29 07:30:57;;;;;;;5.90;3.30;;;7.50;99.90;;;;;;5033698;28;20033;-84
2022/11/29 07:33:47;;;;;;;6.53;3.50;;;7.50;99.90;;;;;;5010510;28;20642;-84
2022/11/29 07:36:36;;;;;;;5.57;3.63;;;7.50;99.90;;;;;;5020426;28;20123;-84
2022/11/29 07:39:36;;;;;;;6.63;3.50;;;7.50;99.90;;;;;;5015238;28;20662;-84
2022/11/29 07:42:14;;;;;;;6.07;3.58;;;7.40;99.90;;;;;;4994960;28;20517;-84
2022/11/29 07:45:10;;;;;;;8.05;3.83;;;7.50;99.90;;;;;;5047874;28;20163;-84
2022/11/29 07:47:35;;;;;;;7.55;4.10;;;7.50;99.90;;;;;;4982611;28;20060;-84
2022/11/29 07:50:01;;;;;;;6.73;4.40;;;7.50;99.90;;;;;;5024048;28;20769;-84
2022/11/29 07:52:27;;;;;;;8.20;4.27;;;7.50;99.90;;;;;;5042022;28;20017;-84
2022/11/29 07:54:53;;;;;;;8.52;4.10;;;7.60;99.90;;;;;;5021822;28;20317;-84
2022/11/29 07:57:18;;;;;;;5.60;3.53;;;7.60;99.90;;;;;;5014973;28;20568;-84
2022/11/29 07:59:44;;;;;;;6.70;3.50;;;7.70;99.90;;;;;;5033068;28;20021;-84
2022/11/29 08:02:10;;;;;;;7.07;3.90;;;7.70;99.90;;;;;;5010852;28;20021;-84
2022/11/29 08:04:43;;;;;;;6.75;4.03;;;7.70;99.90;;;;;;5016809;28;20066;-84
2022/11/29 08:07:09;;;;;;;5.38;3.22;;;7.80;99.90;;;;;;5032016;28;20045;-84
2022/11/29 08:09:34;;;;;;;5.85;3.53;;;7.80;99.90;;;;;;5024009;28;20052;-84
2022/11/29 08:12:00;;;;;;;5.83;3.30;;;7.90;99.90;;;;;;5005795;28;20823;-85
2022/11/29 08:14:29;;;;;;;5.20;3.37;;;7.90;99.90;;;;;;5039111;28;20032;-85
2022/11/29 08:16:55;;;;;;;5.00;2.92;;;8.00;99.90;;;;;;5014569;28;21690;-85
2022/11/29 08:19:20;;;;;;;5.95;3.17;;;8.00;99.90;;;;;;5026776;28;20037;-85
2022/11/29 08:21:47;;;;;;;4.80;2.93;;;8.00;99.90;;;;;;5010507;28;20017;-85
2022/11/29 08:24:12;;;;;;;4.57;3.00;;;8.10;99.90;;;;;;5033111;28;20036;-85
2022/11/29 08:26:38;;;;;;;5.57;3.27;;;8.10;99.90;;;;;;5038396;28;20029;-85
2022/11/29 08:29:03;;;;;;;5.70;3.25;;;8.20;99.90;;;;;;5020184;28;20057;-85
2022/11/29 08:31:29;;;;;;;5.97;3.20;;;8.20;99.90;;;;;;5026709;28;20021;-85
2022/11/29 08:33:55;;;;;;;6.10;3.70;;;8.20;99.90;;;;;;4995610;28;20474;-85
2022/11/29 08:36:20;;;;;;;5.53;3.30;;;8.30;99.90;;;;;;5029861;28;20280;-84
2022/11/29 08:38:46;;;;;;;6.37;4.00;;;8.40;99.90;;;;;;5028563;28;20138;-84
2022/11/29 08:41:14;;;;;;;7.18;4.63;;;8.40;99.90;;;;;;5030690;28;20057;-84
2022/11/29 08:43:40;;;;;;;7.22;4.05;;;8.50;99.90;;;;;;5013960;28;20020;-85
2022/11/29 08:46:06;;;;;;;6.38;4.47;;;8.50;99.90;;;;;;5046034;28;20021;-85
2022/11/29 08:48:32;;;;;;;5.23;3.30;;;8.60;99.90;;;;;;5022382;28;20082;-85
2022/11/29 08:50:58;;;;;;;6.68;3.97;;;8.60;99.90;;;;;;5013660;28;20369;-85
2022/11/29 08:53:45;;;;;;;5.93;3.78;;;8.70;99.90;;;;;;5030479;28;20029;-85
2022/11/29 08:56:17;;;;;;;6.40;3.92;;;8.70;99.90;;;;;;5025204;28;20037;-85
2022/11/29 08:58:44;;;;;;;6.33;3.73;;;8.80;99.90;;;;;;5025466;28;20033;-85
2022/11/29 09:01:14;;;;;;;5.95;3.70;;;8.80;99.90;;;;;;5061227;28;20163;-85
2022/11/29 09:04:03;;;;;;;5.97;3.78;;;8.90;99.90;;;;;;5021010;28;20790;-85
2022/11/29 09:06:33;;;;;;;5.95;3.85;;;8.90;99.90;;;;;;5002839;28;20034;-85
2022/11/29 09:08:59;;;;;;;7.15;4.22;;;9.00;99.90;;;;;;5023014;28;20026;-85
2022/11/29 09:11:27;;;;;;;8.40;4.47;;;9.00;99.90;;;;;;5058319;28;20501;-85
2022/11/29 09:13:59;;;;;;;6.55;4.25;;;9.10;99.90;;;;;;5054760;28;20044;-85
2022/11/29 09:16:27;;;;;;;6.88;4.45;;;9.10;99.90;;;;;;5030544;28;20026;-85
2022/11/29 09:18:54;;;;;;;5.78;3.50;;;9.10;99.90;;;;;;5026118;28;20021;-85
2022/11/29 09:21:26;;;;;;;7.13;4.28;;;9.20;99.90;;;;;;4982607;28;20501;-85
2022/11/29 09:23:57;;;;;;;6.33;3.53;;;9.20;99.90;;;;;;5008965;28;20028;-85
2022/11/29 09:26:25;;;;;;;7.47;4.22;;;9.30;99.90;;;;;;5038653;28;20115;-85
2022/11/29 09:28:51;;;;;;;7.68;4.60;;;9.30;99.90;;;;;;5062761;28;20021;-85
2022/11/29 09:31:17;;;;;;;6.10;4.13;;;9.40;99.90;;;;;;5027099;28;20094;-85
2022/11/29 09:33:44;;;;;;;6.40;3.77;;;9.40;99.90;;;;;;5016421;28;20154;-86
2022/11/29 09:36:10;;;;;;;7.93;4.40;;;9.50;99.90;;;;;;4990952;28;20400;-85
2022/11/29 09:38:37;;;;;;;6.88;4.28;;;9.60;99.90;;;;;;5011481;28;20588;-85
2022/11/29 09:41:11;;;;;;;8.55;4.75;;;9.70;99.90;;;;;;5043026;28;20075;-85
2022/11/29 09:44:34;;;;;;;8.60;4.40;;;9.70;99.90;;;;;;5022467;28;20507;-85
2022/11/29 09:47:57;;;;;;;7.05;4.30;;;9.80;99.90;;;;;;4920203;28;20046;-86
2022/11/29 09:50:35;;;;;;;8.48;4.15;;;9.80;99.90;;;;;;4889882;29;20130;-85
2022/11/29 09:53:19;;;;;;;7.18;4.75;;;9.90;99.90;;;;;;4970606;28;20118;-85
2022/11/29 09:56:11;;;;;;;7.10;4.47;;;9.90;99.90;;;;;;4985982;28;20048;-85
2022/11/29 09:58:47;;;;;;;7.73;4.23;;;9.90;99.90;;;;;;5046954;28;20252;-85
2022/11/29 10:01:22;;;;;;;7.45;4.97;;;10.00;99.90;;;;;;5014630;28;20021;-85
2022/11/29 10:03:59;;;;;;;8.57;5.03;;;10.00;99.90;;;;;;5026098;28;20170;-86
2022/11/29 10:06:40;;;;;;;9.50;5.10;;;10.00;99.90;;;;;;5012442;28;20336;-86
2022/11/29 10:09:15;;;;;;;8.10;5.00;;;10.10;99.90;;;;;;5031894;28;20501;-86
2022/11/29 10:11:47;;;;;;;6.57;4.10;;;10.10;99.90;;;;;;5037165;28;20506;-86
2022/11/29 10:14:24;;;;;;;10.02;4.95;;;10.10;99.90;;;;;;5013356;28;20477;-86
2022/11/29 10:17:11;;;;;;;9.07;5.03;;;10.20;99.90;;;;;;5011428;28;20615;-86
2022/11/29 10:19:43;;;;;;;9.43;5.55;;;10.30;99.90;;;;;;5024614;28;20314;-86
2022/11/29 10:22:08;;;;;;;8.98;5.32;;;10.30;99.90;;;;;;5033800;28;20049;-86
2022/11/29 10:24:36;;;;;;;9.73;5.60;;;10.40;99.90;;;;;;5009946;28;20331;-86
2022/11/29 10:27:12;;;;;;;9.48;5.55;;;10.40;99.90;;;;;;5007931;28;20120;-87
2022/11/29 10:29:38;;;;;;;8.98;5.43;;;10.50;99.90;;;;;;5000453;28;20052;-86
2022/11/29 10:32:12;;;;;;;8.83;5.07;;;10.60;99.90;;;;;;5023402;28;20089;-87
2022/11/29 10:34:39;;;;;;;7.25;4.78;;;10.70;99.90;;;;;;5014390;28;20346;-87
2022/11/29 10:37:18;;;;;;;8.48;5.28;;;10.70;99.90;;;;;;5029363;28;20025;-87
2022/11/29 10:39:52;;;;;;;10.43;5.38;;;10.70;99.90;;;;;;5002246;28;20336;-87
2022/11/29 10:45:32;;;;;;;9.68;5.15;;;10.80;99.90;;;;;;5021287;28;20021;-88
2022/11/29 10:48:16;;;;;;;9.43;4.95;;;10.80;99.90;;;;;;5030722;28;20050;-87
2022/11/29 10:50:43;;;;;;;8.77;4.88;;;10.90;99.90;;;;;;5017148;28;20221;-87
2022/11/29 10:53:18;;;;;;;9.75;5.10;;;10.90;99.90;;;;;;4994597;28;20020;-87
2022/11/29 10:55:56;;;;;;;8.70;4.70;;;10.90;99.90;;;;;;5030745;28;20131;-87
2022/11/29 10:58:24;;;;;;;8.93;4.85;;;10.90;99.90;;;;;;5054361;28;20291;-87
2022/11/29 11:00:56;;;;;;;8.63;4.97;;;10.90;99.90;;;;;;5038297;28;20021;-87
2022/11/29 11:03:28;;;;;;;8.38;4.93;;;11.00;99.90;;;;;;5034079;28;20021;-87
2022/11/29 11:05:58;;;;;;;9.07;4.97;;;11.00;99.90;;;;;;5023727;28;20037;-87
2022/11/29 11:08:25;;;;;;;10.07;5.30;;;11.00;99.90;;;;;;4990188;28;20044;-87
2022/11/29 11:10:54;;;;;;;8.38;4.72;;;11.00;99.90;;;;;;5040396;28;20021;-88
2022/11/29 11:13:28;;;;;;;8.20;4.40;;;11.10;99.90;;;;;;5055895;28;20033;-88
2022/11/29 11:16:18;;;;;;;9.48;4.80;;;11.10;99.90;;;;;;5027729;28;20489;-88
2022/11/29 11:18:46;;;;;;;9.60;5.22;;;11.10;99.90;;;;;;4997947;28;20217;-87
2022/11/29 11:21:21;;;;;;;9.53;5.03;;;11.10;99.90;;;;;;4992322;28;20039;-88
2022/11/29 11:23:51;;;;;;;8.75;5.25;;;11.10;99.90;;;;;;5008133;28;20033;-88
2022/11/29 11:26:16;;;;;;;8.85;5.18;;;11.20;99.90;;;;;;5005669;28;20030;-88
2022/11/29 11:29:01;;;;;;;9.60;4.97;;;11.20;99.90;;;;;;5019120;28;20024;-88
2022/11/29 11:31:33;;;;;;;8.73;4.97;;;11.30;99.90;;;;;;5050326;28;20030;-87
2022/11/29 11:34:34;;;;;;;8.10;4.68;;;11.30;99.90;;;;;;5045059;28;20028;-87
2022/11/29 11:37:24;;;;;;;8.80;4.65;;;11.40;99.90;;;;;;5003554;28;20321;-87
2022/11/29 11:39:52;;;;;;;8.77;4.60;;;11.40;99.90;;;;;;5011123;28;20061;-87
2022/11/29 11:42:39;;;;;;;8.80;4.83;;;11.40;99.90;;;;;;5044971;28;20061;-87
2022/11/29 11:45:20;;;;;;;7.78;4.65;;;11.40;99.90;;;;;;5051689;28;20025;-87
2022/11/29 11:48:00;;;;;;;8.70;4.28;;;11.40;99.90;;;;;;5009382;28;20045;-87
2022/11/29 11:50:33;;;;;;;8.70;4.63;;;11.40;99.90;;;;;;5004241;28;20026;-88
2022/11/29 11:53:05;;;;;;;7.68;4.60;;;11.40;99.90;;;;;;5053119;28;20052;-87
2022/11/29 11:55:38;;;;;;;10.43;4.63;;;11.40;99.90;;;;;;5008030;28;20076;-88
2022/11/29 11:58:04;;;;;;;10.48;4.78;;;11.40;99.90;;;;;;5005898;28;20410;-88
2022/11/29 12:00:57;;;;;;;7.78;4.32;;;11.40;99.90;;;;;;5017753;28;20086;-88
2022/11/29 12:03:51;;;;;;;8.33;4.33;;;11.50;99.90;;;;;;5009086;28;20673;-88
2022/11/29 12:06:38;;;;;;;9.65;4.68;;;11.60;99.90;;;;;;4998922;28;20105;-88
2022/11/29 12:09:17;;;;;;;9.05;4.60;;;11.60;99.90;;;;;;5010512;28;20238;-88
2022/11/29 12:12:11;;;;;;;8.48;4.65;;;11.70;99.90;;;;;;4989568;28;20035;-88
2022/11/29 12:14:59;;;;;;;8.48;4.57;;;11.80;99.90;;;;;;5010822;28;20032;-88
2022/11/29 12:17:30;;;;;;;8.23;4.60;;;11.80;99.90;;;;;;5038553;28;20455;-88
2022/11/29 12:20:06;;;;;;;8.48;4.68;;;11.90;99.90;;;;;;5014903;28;20401;-88
2022/11/29 12:22:38;;;;;;;8.95;5.28;;;12.00;99.90;;;;;;5013698;28;20048;-88
2022/11/29 12:25:10;;;;;;;9.73;4.82;;;12.00;99.90;;;;;;5041133;28;20277;-88
2022/11/29 12:27:35;;;;;;;10.20;5.47;;;12.20;99.90;;;;;;4996534;28;20501;-88
2022/11/29 12:30:04;;;;;;;8.57;4.77;;;12.20;99.90;;;;;;5037121;28;20029;-87
2022/11/29 12:33:01;;;;;;;9.55;4.75;;;12.20;99.90;;;;;;5042579;28;20030;-88
2022/11/29 12:35:47;;;;;;;8.23;4.55;;;12.30;99.90;;;;;;5033345;28;20536;-88
2022/11/29 12:38:35;;;;;;;6.40;3.90;;;12.20;99.90;;;;;;5044422;28;20031;-88
2022/11/29 12:41:20;;;;;;;9.20;4.63;;;12.20;99.90;;;;;;4987543;28;21427;-88
2022/11/29 12:44:08;;;;;;;7.60;4.43;;;12.20;99.90;;;;;;5025750;28;20021;-88
2022/11/29 12:46:34;;;;;;;8.60;4.47;;;12.30;99.90;;;;;;5028107;28;20560;-87
2022/11/29 12:49:15;;;;;;;8.98;4.97;;;12.30;99.90;;;;;;5031761;28;20313;-87
2022/11/29 12:51:59;;;;;;;8.57;4.60;;;12.50;99.90;;;;;;5012702;28;20749;-87
2022/11/29 12:54:43;;;;;;;8.73;4.90;;;12.70;99.90;;;;;;4996185;28;20277;-88
2022/11/29 12:57:32;;;;;;;8.95;5.00;;;12.80;99.90;;;;;;5009656;28;20032;-88
2022/11/29 13:00:01;;;;;;;9.60;4.93;;;13.00;99.90;;;;;;5004546;28;20293;-88
2022/11/29 13:03:07;;;;;;;7.28;4.72;;;13.20;99.90;;;;;;5013325;28;20018;-87
2022/11/29 13:05:42;;;;;;;7.70;4.23;;;13.40;99.90;;;;;;4992446;28;20028;-88
2022/11/29 13:08:19;;;;;;;7.75;4.72;;;13.40;99.90;;;;;;5021362;28;20037;-89
2022/11/29 13:11:12;;;;;;;8.27;5.03;;;13.50;99.90;;;;;;5047062;28;20025;-88
2022/11/29 13:14:05;;;;;;;6.60;4.25;;;13.40;99.90;;;;;;5002878;28;20249;-89
2022/11/29 13:17:02;;;;;;;7.38;4.35;;;13.30;99.90;;;;;;5024484;28;20313;-88
2022/11/29 13:19:55;;;;;;;7.50;4.33;;;13.20;99.90;;;;;;5010392;28;20789;-88
2022/11/29 13:22:38;;;;;;;8.05;4.47;;;13.10;99.90;;;;;;5018691;28;20230;-88
2022/11/29 13:25:16;;;;;;;6.90;4.18;;;13.00;99.90;;;;;;4995690;28;20064;-89
2022/11/29 13:28:03;;;;;;;7.95;4.35;;;12.90;99.90;;;;;;5020503;28;20404;-88
2022/11/29 13:30:29;;;;;;;7.40;4.57;;;12.80;99.90;;;;;;5004201;28;20422;-88
2022/11/29 13:33:02;;;;;;;7.67;4.60;;;12.80;99.90;;;;;;5014498;28;20026;-88
2022/11/29 13:36:00;;;;;;;9.23;4.97;;;12.70;99.90;;;;;;4999841;28;20518;-88
2022/11/29 13:38:44;;;;;;;8.40;4.75;;;12.60;99.90;;;;;;5002538;28;20281;-88
2022/11/29 13:41:35;;;;;;;9.23;5.20;;;12.60;99.90;;;;;;5009553;28;20021;-88
2022/11/29 13:44:44;;;;;;;8.23;4.97;;;12.60;99.90;;;;;;5013693;28;20033;-88
2022/11/29 13:47:12;;;;;;;8.47;4.67;;;12.50;99.90;;;;;;4978284;28;20040;-88